createdAt,value
2017-02-23T00:00:09.309Z,1004.37
2017-02-23T00:00:50.039Z,1004.36
2017-02-23T00:01:30.857Z,1004.36
2017-02-23T00:02:11.582Z,1004.32
2017-02-23T00:02:52.388Z,1004.38
2017-02-23T00:03:33.090Z,1004.34
2017-02-23T00:04:13.878Z,1004.38
2017-02-23T00:04:54.665Z,1004.34
2017-02-23T00:05:35.394Z,1004.35
2017-02-23T00:06:16.156Z,1004.34
2017-02-23T00:06:56.876Z,1004.33
2017-02-23T00:07:37.593Z,1004.36
2017-02-23T00:08:18.295Z,1004.37
2017-02-23T00:08:59.016Z,1004.36
2017-02-23T00:09:39.727Z,1004.39
2017-02-23T00:10:20.559Z,1004.38
2017-02-23T00:11:01.263Z,1004.37
2017-02-23T00:11:41.977Z,1004.39
2017-02-23T00:12:22.750Z,1004.39
2017-02-23T00:13:03.530Z,1004.4
2017-02-23T00:13:44.271Z,1004.4
2017-02-23T00:14:24.980Z,1004.43
2017-02-23T00:15:05.770Z,1004.41
2017-02-23T00:15:46.483Z,1004.44
2017-02-23T00:16:27.248Z,1004.44
2017-02-23T00:17:07.973Z,1004.4
2017-02-23T00:17:48.739Z,1004.39
2017-02-23T00:18:29.501Z,1004.44
2017-02-23T00:19:10.216Z,1004.44
2017-02-23T00:19:50.926Z,1004.43
2017-02-23T00:20:31.759Z,1004.44
2017-02-23T00:21:12.547Z,1004.44
2017-02-23T00:21:53.257Z,1004.44
2017-02-23T00:22:34.051Z,1004.41
2017-02-23T00:23:14.782Z,1004.41
2017-02-23T00:23:55.534Z,1004.41
2017-02-23T00:24:36.312Z,1004.35
2017-02-23T00:25:17.090Z,1004.35
2017-02-23T00:25:57.865Z,1004.41
2017-02-23T00:26:38.591Z,1004.41
2017-02-23T00:27:19.296Z,1004.41
2017-02-23T00:28:00.011Z,1004.39
2017-02-23T00:28:40.764Z,1004.39
2017-02-23T00:29:21.482Z,1004.39
2017-02-23T00:30:02.272Z,1004.39
2017-02-23T00:30:42.983Z,1004.39
2017-02-23T00:31:23.694Z,1004.38
2017-02-23T00:32:04.414Z,1004.38
2017-02-23T00:32:45.125Z,1004.33
2017-02-23T00:33:25.927Z,1004.39
2017-02-23T00:34:06.634Z,1004.33
2017-02-23T00:34:47.343Z,1004.38
2017-02-23T00:35:28.051Z,1004.4
2017-02-23T00:36:08.858Z,1004.41
2017-02-23T00:36:49.622Z,1004.38
2017-02-23T00:37:30.365Z,1004.35
2017-02-23T00:38:11.083Z,1004.39
2017-02-23T00:38:51.861Z,1004.44
2017-02-23T00:39:32.572Z,1004.4
2017-02-23T00:40:13.304Z,1004.39
2017-02-23T00:40:54.010Z,1004.37
2017-02-23T00:41:34.757Z,1004.37
2017-02-23T00:42:15.516Z,1004.37
2017-02-23T00:42:56.230Z,1004.36
2017-02-23T00:43:36.947Z,1004.36
2017-02-23T00:44:17.718Z,1004.38
2017-02-23T00:44:58.474Z,1004.39
2017-02-23T00:45:39.208Z,1004.34
2017-02-23T00:46:19.914Z,1004.36
2017-02-23T00:47:00.704Z,1004.38
2017-02-23T00:47:41.421Z,1004.36
2017-02-23T00:48:22.149Z,1004.4
2017-02-23T00:49:02.887Z,1004.37
2017-02-23T00:49:43.649Z,1004.39
2017-02-23T00:50:24.392Z,1004.44
2017-02-23T00:51:05.168Z,1004.37
2017-02-23T00:51:45.947Z,1004.38
2017-02-23T00:52:26.667Z,1004.41
2017-02-23T00:53:07.483Z,1004.43
2017-02-23T00:53:48.194Z,1004.46
2017-02-23T00:54:29.051Z,1004.42
2017-02-23T00:55:09.827Z,1004.41
2017-02-23T00:55:50.536Z,1004.4
2017-02-23T00:56:31.292Z,1004.38
2017-02-23T00:57:12.083Z,1004.39
2017-02-23T00:57:52.867Z,1004.36
2017-02-23T00:58:33.668Z,1004.38
2017-02-23T00:59:14.402Z,1004.41
2017-02-23T00:59:55.229Z,1004.37
2017-02-23T01:00:35.938Z,1004.34
2017-02-23T01:01:16.697Z,1004.39
2017-02-23T01:01:57.398Z,1004.37
2017-02-23T01:02:38.130Z,1004.37
2017-02-23T01:03:18.837Z,1004.38
2017-02-23T01:03:59.668Z,1004.36
2017-02-23T01:04:40.442Z,1004.39
2017-02-23T01:05:21.167Z,1004.39
2017-02-23T01:06:01.872Z,1004.36
2017-02-23T01:06:42.678Z,1004.31
2017-02-23T01:07:23.384Z,1004.33
2017-02-23T01:08:04.095Z,1004.33
2017-02-23T01:08:44.867Z,1004.31
2017-02-23T01:09:25.580Z,1004.29
2017-02-23T01:10:06.298Z,1004.26
2017-02-23T01:10:47.014Z,1004.28
2017-02-23T01:11:27.729Z,1004.24
2017-02-23T01:12:08.536Z,1004.27
2017-02-23T01:12:49.306Z,1004.24
2017-02-23T01:13:30.106Z,1004.23
2017-02-23T01:14:10.831Z,1004.21
2017-02-23T01:14:51.547Z,1004.23
2017-02-23T01:15:32.300Z,1004.2
2017-02-23T01:16:13.033Z,1004.22
2017-02-23T01:16:53.748Z,1004.19
2017-02-23T01:17:34.522Z,1004.2
2017-02-23T01:18:15.307Z,1004.23
2017-02-23T01:18:56.069Z,1004.18
2017-02-23T01:19:36.808Z,1004.18
2017-02-23T01:20:17.491Z,1004.18
2017-02-23T01:20:58.301Z,1004.16
2017-02-23T01:21:39.004Z,1004.11
2017-02-23T01:22:19.755Z,1004.14
2017-02-23T01:23:00.484Z,1004.11
2017-02-23T01:23:41.196Z,1004.13
2017-02-23T01:24:21.906Z,1004.1
2017-02-23T01:25:02.646Z,1004.07
2017-02-23T01:25:43.353Z,1004.07
2017-02-23T01:26:24.136Z,1004.08
2017-02-23T01:27:04.924Z,1004.09
2017-02-23T01:27:45.754Z,1004.05
2017-02-23T01:28:26.529Z,1004.1
2017-02-23T01:29:07.247Z,1004.09
2017-02-23T01:29:48.020Z,1004.07
2017-02-23T01:30:28.818Z,1004.05
2017-02-23T01:31:09.566Z,1004.06
2017-02-23T01:31:50.269Z,1004.11
2017-02-23T01:32:31.012Z,1004.1
2017-02-23T01:33:11.807Z,1004.07
2017-02-23T01:33:52.572Z,1004.15
2017-02-23T01:34:33.287Z,1004.1
2017-02-23T01:35:13.991Z,1004.2
2017-02-23T01:35:54.713Z,1004.16
2017-02-23T01:36:35.452Z,1004.16
2017-02-23T01:37:16.186Z,1004.18
2017-02-23T01:37:56.910Z,1004.17
2017-02-23T01:38:37.680Z,1004.16
2017-02-23T01:39:19.488Z,1004.17
2017-02-23T01:40:01.334Z,1004.2
2017-02-23T01:40:42.180Z,1004.18
2017-02-23T01:41:24.071Z,1004.17
2017-02-23T01:42:04.961Z,1004.2
2017-02-23T01:42:45.798Z,1004.16
2017-02-23T01:46:32.084Z,1004.15
2017-02-23T01:47:12.904Z,1004.13
2017-02-23T01:47:53.699Z,1004.2
2017-02-23T01:48:34.496Z,1004.19
2017-02-23T01:49:15.278Z,1004.22
2017-02-23T01:49:56.144Z,1004.22
2017-02-23T01:50:36.938Z,1004.25
2017-02-23T01:51:17.737Z,1004.26
2017-02-23T01:51:58.523Z,1004.29
2017-02-23T01:52:39.327Z,1004.32
2017-02-23T01:53:20.151Z,1004.31
2017-02-23T01:54:00.993Z,1004.31
2017-02-23T01:54:41.799Z,1004.27
2017-02-23T01:55:22.880Z,1004.31
2017-02-23T01:56:05.088Z,1004.33
2017-02-23T01:56:46.963Z,1004.33
2017-02-23T01:57:27.894Z,1004.32
2017-02-23T01:58:08.781Z,1004.3
2017-02-23T01:58:49.694Z,1004.27
2017-02-23T01:59:30.659Z,1004.24
2017-02-23T02:00:12.465Z,1004.2
2017-02-23T02:00:53.371Z,1004.21
2017-02-23T02:01:34.871Z,1004.16
2017-02-23T02:02:18.303Z,1004.16
2017-02-23T02:02:59.966Z,1004.15
2017-02-23T02:03:42.291Z,1004.11
2017-02-23T02:04:24.196Z,1004.12
2017-02-23T02:05:05.029Z,1004.13
2017-02-23T02:05:45.791Z,1004.11
2017-02-23T02:06:26.562Z,1004.09
2017-02-23T02:07:07.334Z,1004.12
2017-02-23T02:07:48.103Z,1004.14
2017-02-23T02:08:28.876Z,1004.2
2017-02-23T02:09:10.275Z,1004.15
2017-02-23T02:09:51.044Z,1004.19
2017-02-23T02:10:31.856Z,1004.16
2017-02-23T02:11:12.622Z,1004.16
2017-02-23T02:11:53.448Z,1004.15
2017-02-23T02:12:34.280Z,1004.16
2017-02-23T02:13:15.115Z,1004.15
2017-02-23T02:13:55.891Z,1004.12
2017-02-23T02:14:36.668Z,1004.1
2017-02-23T02:15:17.480Z,1004.08
2017-02-23T02:15:58.305Z,1004.06
2017-02-23T02:16:39.149Z,1004.04
2017-02-23T02:17:19.962Z,1003.99
2017-02-23T02:18:00.760Z,1003.97
2017-02-23T02:18:41.578Z,1003.92
2017-02-23T02:19:22.321Z,1003.92
2017-02-23T02:20:03.160Z,1003.92
2017-02-23T02:20:43.936Z,1003.88
2017-02-23T02:21:24.749Z,1003.86
2017-02-23T02:22:05.600Z,1003.88
2017-02-23T02:22:46.382Z,1003.86
2017-02-23T02:23:27.138Z,1003.89
2017-02-23T02:24:07.974Z,1003.86
2017-02-23T02:24:48.768Z,1003.88
2017-02-23T02:25:29.538Z,1003.89
2017-02-23T02:26:10.385Z,1003.89
2017-02-23T02:26:51.177Z,1003.89
2017-02-23T02:27:31.960Z,1003.89
2017-02-23T02:28:12.729Z,1003.88
2017-02-23T02:28:53.500Z,1003.85
2017-02-23T02:29:34.290Z,1003.87
2017-02-23T02:30:15.086Z,1003.83
2017-02-23T02:30:55.880Z,1003.87
2017-02-23T02:31:36.692Z,1003.82
2017-02-23T02:32:17.540Z,1003.86
2017-02-23T02:32:58.354Z,1003.79
2017-02-23T02:33:39.172Z,1003.8
2017-02-23T02:34:20.010Z,1003.77
2017-02-23T02:35:00.740Z,1003.81
2017-02-23T02:35:41.548Z,1003.76
2017-02-23T02:36:22.392Z,1003.77
2017-02-23T02:37:03.211Z,1003.79
2017-02-23T02:37:44.008Z,1003.78
2017-02-23T02:38:24.802Z,1003.77
2017-02-23T02:39:05.580Z,1003.77
2017-02-23T02:39:46.415Z,1003.77
2017-02-23T02:40:27.266Z,1003.79
2017-02-23T02:41:08.051Z,1003.74
2017-02-23T02:41:48.838Z,1003.8
2017-02-23T02:42:29.643Z,1003.77
2017-02-23T02:43:10.429Z,1003.77
2017-02-23T02:43:51.267Z,1003.77
2017-02-23T02:44:32.045Z,1003.8
2017-02-23T02:45:12.897Z,1003.77
2017-02-23T02:45:53.667Z,1003.77
2017-02-23T02:46:34.450Z,1003.76
2017-02-23T02:47:15.225Z,1003.75
2017-02-23T02:47:56.096Z,1003.75
2017-02-23T02:48:36.882Z,1003.72
2017-02-23T02:49:17.646Z,1003.78
2017-02-23T02:49:58.417Z,1003.71
2017-02-23T02:50:39.195Z,1003.72
2017-02-23T02:51:19.962Z,1003.69
2017-02-23T02:52:00.795Z,1003.74
2017-02-23T02:52:41.604Z,1003.67
2017-02-23T02:53:22.402Z,1003.68
2017-02-23T02:54:03.179Z,1003.7
2017-02-23T02:54:43.996Z,1003.67
2017-02-23T02:55:24.856Z,1003.67
2017-02-23T02:56:05.657Z,1003.69
2017-02-23T02:56:46.461Z,1003.66
2017-02-23T02:57:27.262Z,1003.67
2017-02-23T02:58:08.034Z,1003.64
2017-02-23T02:58:48.843Z,1003.63
2017-02-23T02:59:29.665Z,1003.64
2017-02-23T03:00:10.514Z,1003.65
2017-02-23T03:00:51.310Z,1003.61
2017-02-23T03:01:32.109Z,1003.62
2017-02-23T03:02:12.881Z,1003.62
2017-02-23T03:02:53.678Z,1003.62
2017-02-23T03:03:34.520Z,1003.58
2017-02-23T03:04:15.281Z,1003.55
2017-02-23T03:04:56.052Z,1003.51
2017-02-23T03:05:36.823Z,1003.5
2017-02-23T03:06:17.603Z,1003.45
2017-02-23T03:06:58.375Z,1003.46
2017-02-23T03:07:39.188Z,1003.44
2017-02-23T03:08:20.000Z,1003.45
2017-02-23T03:09:00.837Z,1003.43
2017-02-23T03:09:41.621Z,1003.41
2017-02-23T03:10:22.414Z,1003.42
2017-02-23T03:11:03.256Z,1003.39
2017-02-23T03:11:44.031Z,1003.37
2017-02-23T03:12:24.842Z,1003.35
2017-02-23T03:13:05.679Z,1003.37
2017-02-23T03:13:46.423Z,1003.34
2017-02-23T03:14:27.234Z,1003.31
2017-02-23T03:15:07.949Z,1003.28
2017-02-23T03:15:48.602Z,1003.3
2017-02-23T03:16:29.270Z,1003.27
2017-02-23T03:17:09.954Z,1003.31
2017-02-23T03:17:50.718Z,1003.28
2017-02-23T03:18:31.379Z,1003.25
2017-02-23T03:19:12.031Z,1003.22
2017-02-23T03:19:52.731Z,1003.2
2017-02-23T03:20:33.488Z,1003.22
2017-02-23T03:21:14.236Z,1003.21
2017-02-23T03:21:54.792Z,1003.18
2017-02-23T03:22:35.537Z,1003.2
2017-02-23T03:23:16.254Z,1003.15
2017-02-23T03:23:56.920Z,1003.22
2017-02-23T03:24:37.574Z,1003.21
2017-02-23T03:25:18.278Z,1003.25
2017-02-23T03:25:58.924Z,1003.28
2017-02-23T03:26:39.667Z,1003.27
2017-02-23T03:27:20.366Z,1003.24
2017-02-23T03:28:01.063Z,1003.24
2017-02-23T03:28:41.721Z,1003.24
2017-02-23T03:29:22.449Z,1003.23
2017-02-23T03:30:03.167Z,1003.2
2017-02-23T03:30:43.826Z,1003.22
2017-02-23T03:31:24.449Z,1003.24
2017-02-23T03:32:05.100Z,1003.21
2017-02-23T03:32:45.765Z,1003.2
2017-02-23T03:33:26.386Z,1003.18
2017-02-23T03:34:07.128Z,1003.22
2017-02-23T03:34:47.783Z,1003.22
2017-02-23T03:35:28.425Z,1003.21
2017-02-23T03:36:09.126Z,1003.29
2017-02-23T03:36:49.801Z,1003.32
2017-02-23T03:37:30.445Z,1003.3
2017-02-23T03:38:11.090Z,1003.3
2017-02-23T03:38:51.814Z,1003.26
2017-02-23T03:39:32.449Z,1003.29
2017-02-23T03:40:13.104Z,1003.33
2017-02-23T03:40:53.725Z,1003.26
2017-02-23T03:41:34.361Z,1003.25
2017-02-23T03:42:15.058Z,1003.25
2017-02-23T03:42:55.698Z,1003.23
2017-02-23T03:43:36.432Z,1003.21
2017-02-23T03:44:16.977Z,1003.18
2017-02-23T03:44:57.606Z,1003.18
2017-02-23T03:45:38.239Z,1003.19
2017-02-23T03:46:18.898Z,1003.16
2017-02-23T03:46:59.533Z,1003.15
2017-02-23T03:47:40.181Z,1003.15
2017-02-23T03:48:20.823Z,1003.11
2017-02-23T03:49:01.474Z,1003.13
2017-02-23T03:49:42.098Z,1003.15
2017-02-23T03:50:22.757Z,1003.14
2017-02-23T03:51:03.466Z,1003.11
2017-02-23T03:51:44.153Z,1003.09
2017-02-23T03:52:24.777Z,1003.08
2017-02-23T03:53:05.493Z,1003.11
2017-02-23T03:53:46.164Z,1003.12
2017-02-23T03:54:26.799Z,1003.09
2017-02-23T03:55:07.458Z,1003.1
2017-02-23T03:55:48.140Z,1003.11
2017-02-23T03:56:28.778Z,1003.09
2017-02-23T03:57:09.447Z,1003.08
2017-02-23T03:57:50.076Z,1003.12
2017-02-23T03:58:30.695Z,1003.1
2017-02-23T03:59:11.428Z,1003.09
2017-02-23T03:59:52.145Z,1003.1
2017-02-23T04:00:32.816Z,1003.11
2017-02-23T04:01:13.447Z,1003.12
2017-02-23T04:01:56.404Z,1003.16
2017-02-23T04:02:37.099Z,1003.13
2017-02-23T04:03:17.720Z,1003.07
2017-02-23T04:03:58.348Z,1003.1
2017-02-23T04:04:39.028Z,1003.11
2017-02-23T04:05:19.657Z,1003.08
2017-02-23T04:06:00.286Z,1003.08
2017-02-23T04:06:41.004Z,1003.09
2017-02-23T04:07:21.717Z,1003.08
2017-02-23T04:08:02.349Z,1003.05
2017-02-23T04:08:42.986Z,1003.07
2017-02-23T04:09:23.615Z,1003.06
2017-02-23T04:10:04.239Z,1003.07
2017-02-23T04:10:45.002Z,1003.12
2017-02-23T04:11:25.738Z,1003.14
2017-02-23T04:12:06.400Z,1003.17
2017-02-23T04:12:47.032Z,1003.14
2017-02-23T04:13:27.673Z,1003.15
2017-02-23T04:14:08.299Z,1003.16
2017-02-23T04:14:48.919Z,1003.16
2017-02-23T04:15:29.581Z,1003.16
2017-02-23T04:16:10.208Z,1003.21
2017-02-23T04:16:50.842Z,1003.23
2017-02-23T04:17:31.500Z,1003.19
2017-02-23T04:18:12.184Z,1003.22
2017-02-23T04:18:52.813Z,1003.17
2017-02-23T04:19:33.546Z,1003.15
2017-02-23T04:20:14.244Z,1003.18
2017-02-23T04:20:54.874Z,1003.13
2017-02-23T04:21:35.572Z,1003.17
2017-02-23T04:22:16.287Z,1003.14
2017-02-23T04:22:56.926Z,1003.15
2017-02-23T04:23:37.549Z,1003.11
2017-02-23T04:24:18.246Z,1003.09
2017-02-23T04:24:58.971Z,1003.13
2017-02-23T04:25:39.606Z,1003.11
2017-02-23T04:26:20.246Z,1003.13
2017-02-23T04:27:00.975Z,1003.12
2017-02-23T04:27:41.604Z,1003.06
2017-02-23T04:28:22.226Z,1003.07
2017-02-23T04:29:02.927Z,1003.08
2017-02-23T04:29:43.561Z,1003.07
2017-02-23T04:30:24.194Z,1003.04
2017-02-23T04:31:04.854Z,1003.07
2017-02-23T04:31:45.482Z,1003.03
2017-02-23T04:32:26.107Z,1003.06
2017-02-23T04:33:06.817Z,1003.11
2017-02-23T04:33:47.491Z,1003.09
2017-02-23T04:34:28.177Z,1003.06
2017-02-23T04:35:08.825Z,1003.05
2017-02-23T04:35:49.538Z,1003.09
2017-02-23T04:36:30.173Z,1003.13
2017-02-23T04:37:10.815Z,1003.13
2017-02-23T04:37:51.435Z,1003.13
2017-02-23T04:38:32.063Z,1003.12
2017-02-23T04:39:12.698Z,1003.13
2017-02-23T04:39:53.399Z,1003.17
2017-02-23T04:40:34.033Z,1003.19
2017-02-23T04:41:14.728Z,1003.21
2017-02-23T04:41:55.409Z,1003.15
2017-02-23T04:42:36.039Z,1003.16
2017-02-23T04:43:16.665Z,1003.19
2017-02-23T04:43:57.365Z,1003.19
2017-02-23T04:44:37.997Z,1003.18
2017-02-23T04:45:18.628Z,1003.16
2017-02-23T04:45:59.298Z,1003.14
2017-02-23T04:46:39.929Z,1003.14
2017-02-23T04:47:20.617Z,1003.14
2017-02-23T04:48:01.302Z,1003.12
2017-02-23T04:48:41.972Z,1003.09
2017-02-23T04:49:22.623Z,1003.11
2017-02-23T04:50:03.286Z,1003.12
2017-02-23T04:50:43.898Z,1003.11
2017-02-23T04:51:24.528Z,1003.1
2017-02-23T04:52:05.185Z,1003.08
2017-02-23T04:52:45.813Z,1003.03
2017-02-23T04:53:26.447Z,1003.15
2017-02-23T04:54:07.116Z,1003.05
2017-02-23T04:54:47.741Z,1003.06
2017-02-23T04:55:28.371Z,1003.07
2017-02-23T04:56:09.051Z,1003.11
2017-02-23T04:56:49.681Z,1003.09
2017-02-23T04:57:30.306Z,1003.08
2017-02-23T04:58:10.947Z,1003.08
2017-02-23T04:58:51.587Z,1003.09
2017-02-23T04:59:32.215Z,1003.04
2017-02-23T05:00:12.898Z,1003.05
2017-02-23T05:00:53.523Z,1003.04
2017-02-23T05:01:34.154Z,1003.08
2017-02-23T05:02:14.807Z,1003.05
2017-02-23T05:02:55.450Z,1003.07
2017-02-23T05:03:36.081Z,1003.09
2017-02-23T05:04:16.760Z,1003.05
2017-02-23T05:04:57.388Z,1003.09
2017-02-23T05:05:38.003Z,1003.06
2017-02-23T05:06:18.632Z,1003.1
2017-02-23T05:06:59.252Z,1003.07
2017-02-23T05:07:39.881Z,1003.1
2017-02-23T05:08:20.564Z,1003.1
2017-02-23T05:09:01.232Z,1003.1
2017-02-23T05:09:41.876Z,1003.11
2017-02-23T05:10:22.588Z,1003.08
2017-02-23T05:11:03.227Z,1003.07
2017-02-23T05:11:43.853Z,1003.07
2017-02-23T05:12:24.529Z,1003.08
2017-02-23T05:13:05.160Z,1003.07
2017-02-23T05:13:45.785Z,1003.04
2017-02-23T05:14:26.480Z,1003
2017-02-23T05:15:07.111Z,1002.98
2017-02-23T05:15:47.732Z,1002.99
2017-02-23T05:16:28.395Z,1002.97
2017-02-23T05:17:09.029Z,1002.98
2017-02-23T05:17:49.656Z,1002.99
2017-02-23T05:18:30.324Z,1002.99
2017-02-23T05:19:11.034Z,1002.97
2017-02-23T05:19:51.684Z,1002.96
2017-02-23T05:20:32.338Z,1002.99
2017-02-23T05:21:13.079Z,1002.95
2017-02-23T05:21:53.741Z,1002.95
2017-02-23T05:22:34.371Z,1002.95
2017-02-23T05:23:14.997Z,1002.97
2017-02-23T05:23:55.665Z,1002.96
2017-02-23T05:24:36.289Z,1002.95
2017-02-23T05:25:16.917Z,1002.93
2017-02-23T05:25:57.593Z,1002.91
2017-02-23T05:26:38.212Z,1002.92
2017-02-23T05:27:18.840Z,1002.87
2017-02-23T05:27:59.523Z,1002.87
2017-02-23T05:28:40.158Z,1002.84
2017-02-23T05:29:20.868Z,1002.86
2017-02-23T05:30:01.497Z,1002.82
2017-02-23T05:30:42.128Z,1002.82
2017-02-23T05:31:22.834Z,1002.83
2017-02-23T05:32:03.588Z,1002.77
2017-02-23T05:32:44.226Z,1002.75
2017-02-23T05:33:24.854Z,1002.79
2017-02-23T05:34:05.611Z,1002.78
2017-02-23T05:34:46.248Z,1002.78
2017-02-23T05:35:26.891Z,1002.77
2017-02-23T05:36:07.519Z,1002.76
2017-02-23T05:36:48.174Z,1002.81
2017-02-23T05:37:28.808Z,1002.8
2017-02-23T05:38:09.437Z,1002.82
2017-02-23T05:38:50.111Z,1002.81
2017-02-23T05:39:30.729Z,1002.86
2017-02-23T05:40:11.361Z,1002.82
2017-02-23T05:40:52.032Z,1002.82
2017-02-23T05:41:32.661Z,1002.82
2017-02-23T05:42:13.293Z,1002.81
2017-02-23T05:42:53.962Z,1002.84
2017-02-23T05:43:34.596Z,1002.81
2017-02-23T05:44:15.286Z,1002.88
2017-02-23T05:44:55.948Z,1002.88
2017-02-23T05:45:36.574Z,1002.86
2017-02-23T05:46:17.260Z,1002.9
2017-02-23T05:46:57.889Z,1002.91
2017-02-23T05:47:38.514Z,1002.92
2017-02-23T05:48:19.236Z,1002.94
2017-02-23T05:48:59.938Z,1002.96
2017-02-23T05:49:40.671Z,1002.98
2017-02-23T05:50:21.230Z,1002.99
2017-02-23T05:51:01.857Z,1002.98
2017-02-23T05:51:42.574Z,1003.01
2017-02-23T05:52:23.141Z,1003.03
2017-02-23T05:53:03.795Z,1003.04
2017-02-23T05:53:44.533Z,1002.99
2017-02-23T05:54:25.080Z,1002.99
2017-02-23T05:55:05.808Z,1003.04
2017-02-23T05:55:46.471Z,1002.99
2017-02-23T05:56:27.101Z,1003.03
2017-02-23T05:57:07.733Z,1003.04
2017-02-23T05:57:48.400Z,1003.02
2017-02-23T05:58:29.030Z,1003.03
2017-02-23T05:59:09.650Z,1003.04
2017-02-23T05:59:50.323Z,1003.06
2017-02-23T06:00:30.950Z,1003.07
2017-02-23T06:01:11.575Z,1003.03
2017-02-23T06:01:52.251Z,1003.04
2017-02-23T06:02:32.882Z,1003.03
2017-02-23T06:03:13.600Z,1003.05
2017-02-23T06:03:54.346Z,1002.99
2017-02-23T06:04:34.976Z,1002.98
2017-02-23T06:05:15.652Z,1002.98
2017-02-23T06:05:56.387Z,1002.95
2017-02-23T06:06:37.013Z,1003
2017-02-23T06:07:17.637Z,1002.98
2017-02-23T06:07:58.268Z,1002.99
2017-02-23T06:08:38.932Z,1003
2017-02-23T06:09:19.572Z,1003
2017-02-23T06:10:00.206Z,1003.03
2017-02-23T06:10:40.880Z,1003.06
2017-02-23T06:11:21.501Z,1003.07
2017-02-23T06:12:02.174Z,1003.04
2017-02-23T06:12:42.838Z,1003.06
2017-02-23T06:13:23.459Z,1003.11
2017-02-23T06:14:04.085Z,1003.12
2017-02-23T06:14:44.762Z,1003.12
2017-02-23T06:15:25.387Z,1003.11
2017-02-23T06:16:06.008Z,1003.13
2017-02-23T06:16:46.693Z,1003.14
2017-02-23T06:17:27.322Z,1003.13
2017-02-23T06:18:08.035Z,1003.12
2017-02-23T06:18:48.712Z,1003.12
2017-02-23T06:19:29.344Z,1003.16
2017-02-23T06:20:10.007Z,1003.1
2017-02-23T06:20:50.624Z,1003.14
2017-02-23T06:21:31.253Z,1003.13
2017-02-23T06:22:11.967Z,1003.17
2017-02-23T06:22:52.602Z,1003.14
2017-02-23T06:23:33.231Z,1003.15
2017-02-23T06:24:13.916Z,1003.14
2017-02-23T06:24:54.540Z,1003.17
2017-02-23T06:25:35.164Z,1003.17
2017-02-23T06:26:15.850Z,1003.17
2017-02-23T06:26:56.534Z,1003.21
2017-02-23T06:27:37.203Z,1003.21
2017-02-23T06:28:17.804Z,1003.27
2017-02-23T06:28:58.436Z,1003.25
2017-02-23T06:29:39.070Z,1003.24
2017-02-23T06:30:19.741Z,1003.24
2017-02-23T06:31:00.439Z,1003.25
2017-02-23T06:31:41.083Z,1003.25
2017-02-23T06:32:21.721Z,1003.24
2017-02-23T06:33:02.351Z,1003.27
2017-02-23T06:33:43.009Z,1003.28
2017-02-23T06:34:23.654Z,1003.32
2017-02-23T06:35:04.286Z,1003.3
2017-02-23T06:35:44.937Z,1003.26
2017-02-23T06:36:25.575Z,1003.31
2017-02-23T06:37:06.269Z,1003.3
2017-02-23T06:37:46.916Z,1003.36
2017-02-23T06:38:27.549Z,1003.35
2017-02-23T06:39:08.259Z,1003.36
2017-02-23T06:39:48.933Z,1003.4
2017-02-23T06:40:29.562Z,1003.36
2017-02-23T06:41:10.226Z,1003.37
2017-02-23T06:41:50.894Z,1003.34
2017-02-23T06:42:31.515Z,1003.34
2017-02-23T06:43:12.262Z,1003.37
2017-02-23T06:43:52.892Z,1003.38
2017-02-23T06:44:33.547Z,1003.39
2017-02-23T06:45:14.182Z,1003.4
2017-02-23T06:45:54.807Z,1003.39
2017-02-23T06:46:35.444Z,1003.38
2017-02-23T06:47:16.089Z,1003.36
2017-02-23T06:47:56.746Z,1003.39
2017-02-23T06:48:37.466Z,1003.39
2017-02-23T06:49:18.050Z,1003.42
2017-02-23T06:49:58.711Z,1003.41
2017-02-23T06:50:39.407Z,1003.44
2017-02-23T06:51:20.050Z,1003.43
2017-02-23T06:52:00.808Z,1003.48
2017-02-23T06:52:41.437Z,1003.47
2017-02-23T06:53:22.063Z,1003.45
2017-02-23T06:54:02.736Z,1003.48
2017-02-23T06:54:43.359Z,1003.47
2017-02-23T06:55:23.984Z,1003.47
2017-02-23T06:56:04.653Z,1003.48
2017-02-23T06:56:45.379Z,1003.48
2017-02-23T06:57:26.007Z,1003.47
2017-02-23T06:58:06.731Z,1003.45
2017-02-23T06:58:47.362Z,1003.45
2017-02-23T06:59:28.040Z,1003.41
2017-02-23T07:00:08.685Z,1003.43
2017-02-23T07:00:49.344Z,1003.43
2017-02-23T07:01:30.005Z,1003.41
2017-02-23T07:02:10.630Z,1003.45
2017-02-23T07:02:51.254Z,1003.4
2017-02-23T07:03:31.937Z,1003.39
2017-02-23T07:04:12.568Z,1003.37
2017-02-23T07:04:53.282Z,1003.38
2017-02-23T07:05:33.965Z,1003.32
2017-02-23T07:06:14.588Z,1003.32
2017-02-23T07:06:55.277Z,1003.32
2017-02-23T07:07:35.910Z,1003.28
2017-02-23T07:08:16.541Z,1003.31
2017-02-23T07:08:57.236Z,1003.29
2017-02-23T07:09:37.869Z,1003.3
2017-02-23T07:10:18.501Z,1003.29
2017-02-23T07:10:59.194Z,1003.26
2017-02-23T07:11:39.954Z,1003.24
2017-02-23T07:12:21.152Z,1003.24
2017-02-23T07:13:01.889Z,1003.24
2017-02-23T07:13:42.580Z,1003.24
2017-02-23T07:14:23.204Z,1003.25
2017-02-23T07:15:03.929Z,1003.24
2017-02-23T07:15:44.593Z,1003.23
2017-02-23T07:16:25.238Z,1003.25
2017-02-23T07:17:05.988Z,1003.23
2017-02-23T07:17:46.697Z,1003.2
2017-02-23T07:18:27.381Z,1003.25
2017-02-23T07:19:08.027Z,1003.27
2017-02-23T07:19:48.764Z,1003.25
2017-02-23T07:20:29.397Z,1003.23
2017-02-23T07:21:10.031Z,1003.24
2017-02-23T07:21:50.681Z,1003.21
2017-02-23T07:22:31.375Z,1003.21
2017-02-23T07:23:11.999Z,1003.19
2017-02-23T07:23:52.671Z,1003.26
2017-02-23T07:24:33.300Z,1003.21
2017-02-23T07:25:13.929Z,1003.24
2017-02-23T07:25:54.603Z,1003.27
2017-02-23T07:26:35.238Z,1003.26
2017-02-23T07:27:15.874Z,1003.22
2017-02-23T07:27:56.578Z,1003.21
2017-02-23T07:28:37.274Z,1003.26
2017-02-23T07:29:17.933Z,1003.26
2017-02-23T07:29:58.552Z,1003.24
2017-02-23T07:30:39.194Z,1003.24
2017-02-23T07:31:19.955Z,1003.23
2017-02-23T07:32:00.577Z,1003.24
2017-02-23T07:32:41.279Z,1003.23
2017-02-23T07:33:21.933Z,1003.23
2017-02-23T07:34:02.555Z,1003.25
2017-02-23T07:34:43.257Z,1003.22
2017-02-23T07:35:23.884Z,1003.21
2017-02-23T07:36:04.515Z,1003.29
2017-02-23T07:36:45.183Z,1003.24
2017-02-23T07:37:25.813Z,1003.26
2017-02-23T07:38:06.461Z,1003.27
2017-02-23T07:38:47.147Z,1003.28
2017-02-23T07:39:27.779Z,1003.31
2017-02-23T07:40:08.470Z,1003.32
2017-02-23T07:40:49.138Z,1003.34
2017-02-23T07:41:29.831Z,1003.41
2017-02-23T07:42:10.525Z,1003.41
2017-02-23T07:42:51.146Z,1003.43
2017-02-23T07:43:31.810Z,1003.43
2017-02-23T07:44:12.473Z,1003.45
2017-02-23T07:44:53.062Z,1003.49
2017-02-23T07:45:33.780Z,1003.45
2017-02-23T07:46:14.411Z,1003.52
2017-02-23T07:46:55.038Z,1003.5
2017-02-23T07:47:35.705Z,1003.52
2017-02-23T07:48:16.447Z,1003.55
2017-02-23T07:48:57.077Z,1003.52
2017-02-23T07:49:37.726Z,1003.52
2017-02-23T07:50:18.485Z,1003.52
2017-02-23T07:50:59.135Z,1003.53
2017-02-23T07:51:39.765Z,1003.53
2017-02-23T07:52:20.388Z,1003.54
2017-02-23T07:53:01.106Z,1003.61
2017-02-23T07:53:41.733Z,1003.62
2017-02-23T07:54:22.398Z,1003.64
2017-02-23T07:55:03.036Z,1003.62
2017-02-23T07:55:43.664Z,1003.65
2017-02-23T07:56:24.355Z,1003.66
2017-02-23T07:57:05.069Z,1003.67
2017-02-23T07:57:45.702Z,1003.73
2017-02-23T07:58:26.347Z,1003.73
2017-02-23T07:59:06.978Z,1003.79
2017-02-23T07:59:47.608Z,1003.75
2017-02-23T08:00:28.278Z,1003.78
2017-02-23T08:01:08.911Z,1003.83
2017-02-23T08:01:49.547Z,1003.79
2017-02-23T08:02:30.181Z,1003.82
2017-02-23T08:03:10.831Z,1003.8
2017-02-23T08:03:51.471Z,1003.86
2017-02-23T08:04:32.140Z,1003.81
2017-02-23T08:05:12.774Z,1003.83
2017-02-23T08:05:53.410Z,1003.82
2017-02-23T08:06:34.102Z,1003.78
2017-02-23T08:07:14.824Z,1003.79
2017-02-23T08:07:55.493Z,1003.83
2017-02-23T08:08:36.115Z,1003.87
2017-02-23T08:09:16.754Z,1003.8
2017-02-23T08:09:57.424Z,1003.8
2017-02-23T08:10:38.060Z,1003.8
2017-02-23T08:11:18.751Z,1003.79
2017-02-23T08:11:59.381Z,1003.79
2017-02-23T08:12:40.033Z,1003.76
2017-02-23T08:13:20.723Z,1003.76
2017-02-23T08:14:01.381Z,1003.78
2017-02-23T08:14:42.004Z,1003.76
2017-02-23T08:15:22.647Z,1003.74
2017-02-23T08:16:03.294Z,1003.73
2017-02-23T08:16:43.916Z,1003.76